Terminal Aerodrome Forecast
Issued by NWS

Home | Current Version | Previous Version | Text Only | Print | Product List | Glossary On
Versions: 1 2 3 4 5 6 7 8 9 10 11 12 13 14 15 16 17 18 19 20 21 22 23 24 25 26 27
770
FTUS46 KSGX 181031 AAB
TAFSAN
TAF AMD
KSAN 181031Z 1811/1912 VRB03KT P6SM FEW010
     FM181200 VRB03KT 6SM BR BKN008
     FM181700 VRB04KT P6SM SCT010
     FM182000 30008KT P6SM SKC
     FM190100 VRB04KT P6SM SKC
     FM190600 VRB04KT P6SM SCT005=

USA.gov is the U.S. government's official web portal to all federal, state and local government web resources and services.